Time;durP1;ratioP1;P1;durP2;ratioP2;P2;SDS_P1;SDS_P2;PMS_P1;PMS_P2;Temp;Humidity;BMP_temperature;BMP_pressure;BME280_temperature;BME280_humidity;BME280_pressure;Samples;Min_cycle;Max_cycle;Signal;HPM_P1;HPM_P2
2021/04/22 00:01:45;;;;;;;30.00;5.05;;;;;;;;;;5056237;28;20102;-83
2021/04/22 00:04:12;;;;;;;32.03;5.53;;;;;;;;;;5074205;28;20479;-83
2021/04/22 00:06:39;;;;;;;17.85;4.70;;;;;;;;;;5056298;28;20102;-83
2021/04/22 00:09:08;;;;;;;35.95;4.90;;;;;;;;;;5073830;28;20048;-83
2021/04/22 00:11:35;;;;;;;20.73;5.25;;;;;;;;;;5055173;28;20080;-82
2021/04/22 00:14:02;;;;;;;26.58;4.88;;;;;;;;;;5072256;28;20477;-83
2021/04/22 00:16:28;;;;;;;18.42;3.75;;;;;;;;;;5073137;28;20041;-83
2021/04/22 00:18:55;;;;;;;10.68;4.07;;;;;;;;;;5073929;28;20056;-83
2021/04/22 00:21:22;;;;;;;24.02;4.70;;;;;;;;;;5074061;28;20072;-83
2021/04/22 00:23:49;;;;;;;24.10;4.60;;;;;;;;;;5055724;28;20445;-83
2021/04/22 00:26:15;;;;;;;24.25;4.40;;;;;;;;;;5059665;28;20515;-83
2021/04/22 00:28:42;;;;;;;23.00;4.57;;;;;;;;;;5085816;28;20044;-83
2021/04/22 00:31:09;;;;;;;39.83;4.90;;;;;;;;;;5093649;28;20044;-83
2021/04/22 00:33:36;;;;;;;26.15;4.93;;;;;;;;;;5093685;28;20486;-83
2021/04/22 00:36:03;;;;;;;25.92;5.30;;;;;;;;;;5093558;28;20127;-83
2021/04/22 00:38:29;;;;;;;23.60;5.07;;;;;;;;;;5093322;28;20075;-83
2021/04/22 00:40:56;;;;;;;21.05;4.63;;;;;;;;;;5093952;28;20048;-83
2021/04/22 00:43:23;;;;;;;35.75;4.63;;;;;;;;;;5075385;28;20086;-83
2021/04/22 00:45:50;;;;;;;27.05;4.72;;;;;;;;;;5093456;28;20114;-83
2021/04/22 00:48:18;;;;;;;33.08;5.10;;;;;;;;;;5093381;28;20159;-83
2021/04/22 00:50:45;;;;;;;29.98;5.38;;;;;;;;;;5093485;28;20067;-82
2021/04/22 00:53:12;;;;;;;23.90;4.50;;;;;;;;;;5075065;28;20082;-83
2021/04/22 00:55:39;;;;;;;28.67;4.60;;;;;;;;;;5093037;28;20131;-83
2021/04/22 00:58:06;;;;;;;25.75;5.05;;;;;;;;;;5080360;28;20128;-83
2021/04/22 01:00:35;;;;;;;22.00;4.22;;;;;;;;;;5072484;28;20052;-83
2021/04/22 01:03:02;;;;;;;20.77;3.92;;;;;;;;;;5054263;28;20122;-83
2021/04/22 01:05:39;;;;;;;30.42;4.72;;;;;;;;;;5054411;28;20136;-84
2021/04/22 01:08:06;;;;;;;25.02;4.20;;;;;;;;;;5053924;28;20087;-83
2021/04/22 01:10:33;;;;;;;31.88;4.78;;;;;;;;;;5054497;28;20756;-83
2021/04/22 01:13:00;;;;;;;23.58;4.70;;;;;;;;;;5072462;28;20080;-83
2021/04/22 01:15:27;;;;;;;23.92;4.95;;;;;;;;;;5072794;28;20080;-83
2021/04/22 01:17:55;;;;;;;23.05;4.75;;;;;;;;;;5072536;28;20139;-83
2021/04/22 01:20:26;;;;;;;23.60;4.38;;;;;;;;;;5058511;28;20048;-83
2021/04/22 01:22:54;;;;;;;35.17;5.10;;;;;;;;;;5075058;28;20117;-83
2021/04/22 01:25:32;;;;;;;26.88;4.70;;;;;;;;;;5075051;28;20082;-83
2021/04/22 01:28:00;;;;;;;21.95;3.83;;;;;;;;;;5064277;28;20095;-83
2021/04/22 01:30:41;;;;;;;18.95;5.10;;;;;;;;;;5054578;28;20123;-83
2021/04/22 01:33:08;;;;;;;27.50;4.95;;;;;;;;;;5072747;28;20052;-83
2021/04/22 01:35:37;;;;;;;22.67;5.45;;;;;;;;;;5055121;28;20054;-83
2021/04/22 01:38:04;;;;;;;30.70;4.57;;;;;;;;;;5072304;28;20083;-83
2021/04/22 01:40:31;;;;;;;21.98;4.40;;;;;;;;;;5072616;28;20132;-83
2021/04/22 01:42:58;;;;;;;25.52;4.50;;;;;;;;;;5072175;28;20088;-83
2021/04/22 01:45:25;;;;;;;25.30;3.95;;;;;;;;;;5072376;28;20144;-84
2021/04/22 01:47:59;;;;;;;23.20;4.53;;;;;;;;;;5072188;28;20072;-84
2021/04/22 01:50:27;;;;;;;35.20;4.45;;;;;;;;;;5054686;28;20502;-84
2021/04/22 01:52:53;;;;;;;29.75;4.63;;;;;;;;;;5054673;28;20041;-84
2021/04/22 01:55:24;;;;;;;29.15;4.93;;;;;;;;;;5054770;28;20556;-84
2021/04/22 01:57:53;;;;;;;25.25;4.43;;;;;;;;;;5081161;28;20110;-84
2021/04/22 02:00:25;;;;;;;35.78;4.85;;;;;;;;;;5074753;28;20131;-84
2021/04/22 02:02:52;;;;;;;33.15;4.22;;;;;;;;;;5092658;28;20075;-83
2021/04/22 02:05:20;;;;;;;24.00;4.47;;;;;;;;;;5092509;28;20113;-84
2021/04/22 02:07:47;;;;;;;23.73;4.07;;;;;;;;;;5092872;28;20151;-84
2021/04/22 02:10:14;;;;;;;30.55;4.40;;;;;;;;;;5076070;28;20553;-84
2021/04/22 02:12:44;;;;;;;30.27;4.82;;;;;;;;;;5078254;28;20627;-84
2021/04/22 02:15:12;;;;;;;29.80;4.68;;;;;;;;;;5078037;28;20083;-85
2021/04/22 02:17:39;;;;;;;31.48;4.28;;;;;;;;;;5078012;28;20072;-85
2021/04/22 02:20:09;;;;;;;33.15;4.80;;;;;;;;;;5061635;28;20079;-85
2021/04/22 02:22:36;;;;;;;30.17;5.30;;;;;;;;;;5096296;28;20048;-83
2021/04/22 02:25:07;;;;;;;33.42;5.22;;;;;;;;;;5095884;28;20524;-84
2021/04/22 02:27:34;;;;;;;41.83;6.85;;;;;;;;;;5088572;28;20082;-83
2021/04/22 02:30:01;;;;;;;33.40;4.53;;;;;;;;;;5076413;28;20553;-83
2021/04/22 02:32:27;;;;;;;19.92;4.18;;;;;;;;;;5096191;28;20123;-83
2021/04/22 02:34:54;;;;;;;21.70;4.18;;;;;;;;;;5096006;28;20044;-83
2021/04/22 02:37:21;;;;;;;26.70;4.82;;;;;;;;;;5077442;28;20446;-83
2021/04/22 02:39:47;;;;;;;29.70;4.40;;;;;;;;;;5087050;28;20083;-83
2021/04/22 02:42:14;;;;;;;32.25;4.15;;;;;;;;;;5057363;28;20044;-83
2021/04/22 02:44:41;;;;;;;19.15;4.93;;;;;;;;;;5075128;28;20136;-83
2021/04/22 02:47:08;;;;;;;21.33;4.00;;;;;;;;;;5075071;28;20052;-82
2021/04/22 02:49:40;;;;;;;14.23;4.07;;;;;;;;;;5057323;28;20055;-82
2021/04/22 02:52:08;;;;;;;24.00;4.53;;;;;;;;;;5075267;28;20139;-82
2021/04/22 02:54:35;;;;;;;34.53;4.45;;;;;;;;;;5057507;28;20052;-82
2021/04/22 02:57:03;;;;;;;22.63;3.55;;;;;;;;;;5065783;28;20048;-82
2021/04/22 02:59:29;;;;;;;22.98;4.15;;;;;;;;;;5071751;28;20123;-82
2021/04/22 03:01:56;;;;;;;18.55;3.92;;;;;;;;;;5077981;28;20101;-82
2021/04/22 03:04:29;;;;;;;23.30;3.88;;;;;;;;;;5095512;28;20531;-82
2021/04/22 03:06:56;;;;;;;19.20;3.28;;;;;;;;;;5095404;28;20853;-83
2021/04/22 03:09:22;;;;;;;26.40;4.53;;;;;;;;;;5094962;28;20052;-83
2021/04/22 03:12:00;;;;;;;21.15;3.42;;;;;;;;;;5086341;28;20123;-82
2021/04/22 03:14:33;;;;;;;28.13;4.07;;;;;;;;;;5083249;28;20832;-82
2021/04/22 03:17:01;;;;;;;22.88;3.40;;;;;;;;;;5090178;28;20079;-82
2021/04/22 03:19:29;;;;;;;18.50;3.63;;;;;;;;;;5089426;28;20056;-84
2021/04/22 03:21:56;;;;;;;20.25;2.78;;;;;;;;;;5094439;28;20094;-84
2021/04/22 03:24:23;;;;;;;21.02;3.50;;;;;;;;;;5092259;28;20713;-83
2021/04/22 03:26:49;;;;;;;23.30;4.55;;;;;;;;;;5086575;28;20091;-83
2021/04/22 03:29:16;;;;;;;16.13;2.92;;;;;;;;;;5087570;28;20134;-82
2021/04/22 03:31:43;;;;;;;26.80;3.65;;;;;;;;;;5092408;28;20511;-82
2021/04/22 03:34:10;;;;;;;17.05;2.95;;;;;;;;;;5095055;28;20127;-83
2021/04/22 03:36:37;;;;;;;19.02;3.00;;;;;;;;;;5094429;28;20427;-81
2021/04/22 03:39:06;;;;;;;21.23;3.28;;;;;;;;;;5094699;28;20297;-82
2021/04/22 03:41:33;;;;;;;20.45;3.65;;;;;;;;;;5094426;28;20048;-83
2021/04/22 03:44:04;;;;;;;23.85;3.05;;;;;;;;;;5076880;28;20052;-83
2021/04/22 03:46:31;;;;;;;18.02;2.90;;;;;;;;;;5094410;28;20051;-83
2021/04/22 03:48:57;;;;;;;17.05;2.47;;;;;;;;;;5094722;28;20043;-83
2021/04/22 03:51:28;;;;;;;22.83;3.25;;;;;;;;;;5094467;28;20056;-83
2021/04/22 03:53:56;;;;;;;25.73;3.38;;;;;;;;;;5076453;28;20105;-84
2021/04/22 03:56:22;;;;;;;24.67;3.47;;;;;;;;;;5075847;28;20039;-83
2021/04/22 03:58:49;;;;;;;31.40;3.40;;;;;;;;;;5067090;28;20489;-83
2021/04/22 04:01:16;;;;;;;17.35;2.67;;;;;;;;;;5062718;28;20052;-82
2021/04/22 04:03:42;;;;;;;14.55;3.00;;;;;;;;;;5064295;28;20444;-82
2021/04/22 04:06:09;;;;;;;20.05;2.53;;;;;;;;;;5080603;28;20601;-77
2021/04/22 04:08:36;;;;;;;23.23;3.97;;;;;;;;;;5080105;28;20465;-78
2021/04/22 04:11:03;;;;;;;21.58;4.20;;;;;;;;;;5084095;28;20102;-78
2021/04/22 04:13:32;;;;;;;31.52;2.95;;;;;;;;;;5064265;28;20465;-78
2021/04/22 04:15:59;;;;;;;21.98;3.20;;;;;;;;;;5068458;28;20068;-78
2021/04/22 04:18:26;;;;;;;23.08;3.13;;;;;;;;;;5064454;28;20595;-77
2021/04/22 04:20:52;;;;;;;35.50;3.85;;;;;;;;;;5071958;28;20055;-78
2021/04/22 04:23:19;;;;;;;20.42;2.70;;;;;;;;;;5065137;28;20051;-78
2021/04/22 04:25:46;;;;;;;16.38;3.90;;;;;;;;;;5077641;28;20168;-77
2021/04/22 04:28:13;;;;;;;27.70;3.05;;;;;;;;;;5068126;28;20135;-78
2021/04/22 04:30:39;;;;;;;18.73;3.17;;;;;;;;;;5073209;28;20137;-78
2021/04/22 04:33:06;;;;;;;21.35;3.20;;;;;;;;;;5091120;28;20451;-78
2021/04/22 04:35:33;;;;;;;21.35;2.90;;;;;;;;;;5091623;28;20056;-78
2021/04/22 04:38:02;;;;;;;20.17;3.22;;;;;;;;;;5073743;28;20082;-78
2021/04/22 04:40:28;;;;;;;22.23;4.10;;;;;;;;;;5073734;28;20125;-77
2021/04/22 04:42:55;;;;;;;26.98;3.30;;;;;;;;;;5092052;28;20181;-78
2021/04/22 04:45:22;;;;;;;27.52;4.10;;;;;;;;;;5091702;28;20104;-78
2021/04/22 04:47:49;;;;;;;24.10;3.63;;;;;;;;;;5073614;28;20048;-78
2021/04/22 04:50:16;;;;;;;31.95;3.78;;;;;;;;;;5091684;28;20084;-78
2021/04/22 04:52:44;;;;;;;16.00;2.35;;;;;;;;;;5073509;28;20055;-78
2021/04/22 04:55:11;;;;;;;27.17;2.72;;;;;;;;;;5072962;28;20101;-77
2021/04/22 04:57:38;;;;;;;23.40;3.13;;;;;;;;;;5062743;28;20059;-82
2021/04/22 05:00:08;;;;;;;14.15;2.28;;;;;;;;;;5092216;28;20077;-83
2021/04/22 05:02:35;;;;;;;23.15;3.28;;;;;;;;;;5075010;28;20504;-83
2021/04/22 05:05:07;;;;;;;19.88;2.95;;;;;;;;;;5075873;28;20052;-83
2021/04/22 05:07:33;;;;;;;25.92;3.95;;;;;;;;;;5074851;28;20495;-82
2021/04/22 05:10:00;;;;;;;21.45;3.55;;;;;;;;;;5093089;28;20494;-83
2021/04/22 05:12:27;;;;;;;18.65;3.10;;;;;;;;;;5059857;28;20082;-82
2021/04/22 05:14:53;;;;;;;19.92;3.05;;;;;;;;;;5063249;28;20127;-82
2021/04/22 05:17:20;;;;;;;29.63;2.75;;;;;;;;;;5067583;28;20078;-82
2021/04/22 05:19:48;;;;;;;33.88;3.13;;;;;;;;;;5092953;28;20044;-82
2021/04/22 05:22:14;;;;;;;26.05;3.88;;;;;;;;;;5077907;28;20106;-82
2021/04/22 05:24:45;;;;;;;24.02;4.22;;;;;;;;;;5054448;28;20045;-82
2021/04/22 05:27:11;;;;;;;28.20;5.50;;;;;;;;;;5083766;28;20515;-83
2021/04/22 05:29:38;;;;;;;57.03;5.93;;;;;;;;;;5069715;28;20127;-82
2021/04/22 05:32:05;;;;;;;22.85;3.53;;;;;;;;;;5092645;28;20088;-82
2021/04/22 05:34:36;;;;;;;23.48;3.38;;;;;;;;;;5074360;28;20076;-83
2021/04/22 05:37:04;;;;;;;26.45;4.60;;;;;;;;;;5072557;28;20083;-82
2021/04/22 05:39:30;;;;;;;45.10;3.80;;;;;;;;;;5081899;28;20135;-83
2021/04/22 05:41:58;;;;;;;20.95;3.40;;;;;;;;;;5075061;28;20044;-82
2021/04/22 05:44:25;;;;;;;25.02;3.80;;;;;;;;;;5087231;28;20098;-83
2021/04/22 05:46:52;;;;;;;19.70;3.47;;;;;;;;;;5092169;28;20052;-82
2021/04/22 05:49:19;;;;;;;25.63;3.20;;;;;;;;;;5092472;28;20055;-81
2021/04/22 05:51:46;;;;;;;23.60;3.15;;;;;;;;;;5092165;22;20090;-77
2021/04/22 05:54:13;;;;;;;19.10;3.17;;;;;;;;;;5060513;28;20139;-76
2021/04/22 05:56:40;;;;;;;26.60;4.15;;;;;;;;;;5049918;28;20080;-75
2021/04/22 05:59:07;;;;;;;14.25;2.47;;;;;;;;;;5061800;22;20072;-76
2021/04/22 06:01:33;;;;;;;20.80;2.88;;;;;;;;;;5047214;28;20053;-76
2021/04/22 06:04:00;;;;;;;23.45;2.72;;;;;;;;;;5047417;28;20056;-77
2021/04/22 06:06:27;;;;;;;16.20;2.55;;;;;;;;;;5051395;28;20057;-82
2021/04/22 06:08:54;;;;;;;22.95;3.72;;;;;;;;;;5051525;28;20076;-82
2021/04/22 06:11:21;;;;;;;26.73;3.58;;;;;;;;;;5051836;28;20053;-84
2021/04/22 06:13:47;;;;;;;22.65;3.42;;;;;;;;;;5049529;28;20081;-78
2021/04/22 06:16:14;;;;;;;25.05;3.03;;;;;;;;;;5047721;28;20053;-78
2021/04/22 06:18:41;;;;;;;20.13;3.17;;;;;;;;;;5048035;28;20132;-83
2021/04/22 06:21:10;;;;;;;24.17;3.38;;;;;;;;;;5051067;28;20140;-82
2021/04/22 06:23:36;;;;;;;24.27;2.97;;;;;;;;;;5046682;28;20053;-81
2021/04/22 06:26:03;;;;;;;19.35;2.60;;;;;;;;;;5050263;28;20525;-81
2021/04/22 06:28:30;;;;;;;21.05;2.90;;;;;;;;;;5040103;28;20665;-82
2021/04/22 06:30:57;;;;;;;25.65;4.20;;;;;;;;;;5046795;28;20037;-79
2021/04/22 06:33:23;;;;;;;22.98;3.58;;;;;;;;;;5039075;28;20458;-79
2021/04/22 06:35:50;;;;;;;19.70;2.85;;;;;;;;;;5060747;28;20102;-80
2021/04/22 06:38:17;;;;;;;20.45;3.90;;;;;;;;;;5031592;28;20103;-80
2021/04/22 06:40:44;;;;;;;20.85;2.90;;;;;;;;;;5027698;28;20406;-80
2021/04/22 06:43:13;;;;;;;27.40;4.53;;;;;;;;;;5048743;28;20103;-81
2021/04/22 06:45:41;;;;;;;20.98;3.35;;;;;;;;;;5031080;28;20456;-80
2021/04/22 06:48:09;;;;;;;30.67;4.25;;;;;;;;;;5031031;28;20057;-79
2021/04/22 06:50:37;;;;;;;27.52;3.70;;;;;;;;;;5048539;28;20041;-80
2021/04/22 06:53:05;;;;;;;16.88;3.67;;;;;;;;;;5030455;28;20129;-79
2021/04/22 06:55:32;;;;;;;29.23;3.75;;;;;;;;;;5012741;28;20509;-80
2021/04/22 06:57:59;;;;;;;20.15;3.00;;;;;;;;;;5030828;28;20091;-78
2021/04/22 07:00:28;;;;;;;25.88;3.25;;;;;;;;;;5049893;28;20716;-83
2021/04/22 07:02:55;;;;;;;20.67;3.20;;;;;;;;;;5049120;28;20500;-86
2021/04/22 07:05:23;;;;;;;17.40;2.60;;;;;;;;;;5031758;28;20154;-82
2021/04/22 07:07:50;;;;;;;21.52;3.13;;;;;;;;;;5030973;28;20640;-87
2021/04/22 07:10:18;;;;;;;19.08;3.03;;;;;;;;;;5022273;28;20482;-89
2021/04/22 07:12:45;;;;;;;30.05;2.97;;;;;;;;;;5035997;28;20072;-87
2021/04/22 07:15:12;;;;;;;23.33;3.10;;;;;;;;;;5052718;28;20095;-85
2021/04/22 07:17:39;;;;;;;26.70;3.65;;;;;;;;;;5029815;28;20111;-80
2021/04/22 07:20:12;;;;;;;16.67;3.15;;;;;;;;;;5048073;28;20052;-81
2021/04/22 07:22:55;;;;;;;25.27;3.53;;;;;;;;;;5051990;28;20060;-81
2021/04/22 07:25:22;;;;;;;21.52;3.55;;;;;;;;;;5050989;28;20124;-81
2021/04/22 07:27:49;;;;;;;26.15;3.50;;;;;;;;;;5052348;28;20464;-80
2021/04/22 07:30:16;;;;;;;24.73;3.85;;;;;;;;;;5052606;28;20080;-81
2021/04/22 07:32:44;;;;;;;20.92;3.20;;;;;;;;;;5044527;28;20048;-80
2021/04/22 07:35:12;;;;;;;32.50;4.55;;;;;;;;;;5052353;28;20131;-81
2021/04/22 07:37:39;;;;;;;21.10;3.40;;;;;;;;;;5035840;28;20083;-81
2021/04/22 07:40:08;;;;;;;19.98;3.03;;;;;;;;;;5036200;28;20130;-82
2021/04/22 07:42:35;;;;;;;18.95;4.03;;;;;;;;;;5034724;28;20053;-80
2021/04/22 07:45:03;;;;;;;23.27;2.90;;;;;;;;;;5045099;28;20049;-81
2021/04/22 07:47:30;;;;;;;32.35;3.92;;;;;;;;;;5015935;28;20068;-81
2021/04/22 07:49:57;;;;;;;15.65;2.72;;;;;;;;;;5034204;28;20127;-81
2021/04/22 07:52:27;;;;;;;17.60;4.10;;;;;;;;;;5033196;28;20062;-82
2021/04/22 07:54:54;;;;;;;20.13;3.35;;;;;;;;;;5033011;28;20089;-80
2021/04/22 07:57:20;;;;;;;14.13;2.63;;;;;;;;;;5033242;28;20398;-80
2021/04/22 07:59:47;;;;;;;18.75;2.83;;;;;;;;;;5039819;28;20069;-80
2021/04/22 08:02:34;;;;;;;20.80;3.03;;;;;;;;;;5041443;28;20062;-80
2021/04/22 08:08:07;;;;;;;24.98;4.32;;;;;;;;;;5061830;28;20088;-81
2021/04/22 08:10:35;;;;;;;24.55;2.83;;;;;;;;;;5071940;28;20437;-81
2021/04/22 08:13:03;;;;;;;19.48;3.13;;;;;;;;;;5072380;28;20049;-80
2021/04/22 08:15:31;;;;;;;19.65;2.63;;;;;;;;;;5072910;28;20090;-81
2021/04/22 08:18:00;;;;;;;14.80;3.78;;;;;;;;;;5054836;28;20709;-80
2021/04/22 08:20:27;;;;;;;18.00;3.10;;;;;;;;;;5054870;28;20054;-81
2021/04/22 08:22:55;;;;;;;20.85;3.05;;;;;;;;;;5071529;28;20056;-81
2021/04/22 08:25:26;;;;;;;10.80;1.90;;;;;;;;;;5070407;28;20048;-81
2021/04/22 08:27:54;;;;;;;14.23;2.80;;;;;;;;;;5071095;28;20492;-80
2021/04/22 08:30:22;;;;;;;17.15;3.45;;;;;;;;;;5070308;28;20114;-81
2021/04/22 08:32:49;;;;;;;20.13;2.95;;;;;;;;;;5067044;28;20091;-81
2021/04/22 08:35:16;;;;;;;15.43;2.70;;;;;;;;;;5072315;28;20059;-80
2021/04/22 08:37:43;;;;;;;14.85;2.33;;;;;;;;;;5063771;28;20124;-80
2021/04/22 08:40:11;;;;;;;14.48;2.80;;;;;;;;;;5070951;28;20144;-85
2021/04/22 08:42:40;;;;;;;14.77;2.88;;;;;;;;;;5054720;28;20097;-81
2021/04/22 08:45:08;;;;;;;12.75;2.80;;;;;;;;;;5051710;28;20110;-84
2021/04/22 08:47:35;;;;;;;22.95;3.67;;;;;;;;;;5066181;28;20076;-80
2021/04/22 08:50:05;;;;;;;21.23;3.95;;;;;;;;;;5070354;28;20066;-78
2021/04/22 08:52:47;;;;;;;16.10;3.45;;;;;;;;;;5065136;28;20053;-81
2021/04/22 08:55:15;;;;;;;14.55;2.72;;;;;;;;;;5066687;28;20469;-80
2021/04/22 08:57:41;;;;;;;20.95;3.50;;;;;;;;;;5058408;28;20072;-79
2021/04/22 09:00:09;;;;;;;16.25;3.25;;;;;;;;;;5052564;28;20167;-78
2021/04/22 09:02:36;;;;;;;18.23;3.42;;;;;;;;;;5038956;28;20053;-79
2021/04/22 09:05:04;;;;;;;22.10;3.15;;;;;;;;;;5051263;28;20056;-81
2021/04/22 09:07:31;;;;;;;9.70;2.58;;;;;;;;;;5055155;28;20106;-81
2021/04/22 09:10:01;;;;;;;14.30;3.13;;;;;;;;;;5051699;28;20132;-80
2021/04/22 09:12:29;;;;;;;13.77;2.90;;;;;;;;;;5054444;28;20439;-83
2021/04/22 09:15:07;;;;;;;15.30;3.38;;;;;;;;;;5052777;28;20076;-83
2021/04/22 09:17:37;;;;;;;12.98;3.38;;;;;;;;;;5070892;28;20114;-82
2021/04/22 09:20:05;;;;;;;13.30;3.00;;;;;;;;;;5053242;28;20049;-82
2021/04/22 09:22:37;;;;;;;19.27;3.05;;;;;;;;;;5070480;28;20044;-85
2021/04/22 09:25:13;;;;;;;15.77;3.72;;;;;;;;;;5065238;28;20057;-84
2021/04/22 09:27:42;;;;;;;13.73;3.33;;;;;;;;;;5051855;28;20482;-85
2021/04/22 09:30:11;;;;;;;15.35;3.35;;;;;;;;;;5045522;28;20455;-82
2021/04/22 09:32:44;;;;;;;13.85;3.70;;;;;;;;;;5058309;28;20106;-82
2021/04/22 09:35:13;;;;;;;17.40;2.45;;;;;;;;;;5067415;28;20047;-82
2021/04/22 09:37:51;;;;;;;15.57;3.13;;;;;;;;;;5058262;28;20052;-84
2021/04/22 09:40:18;;;;;;;12.25;2.70;;;;;;;;;;5056113;28;20560;-84
2021/04/22 09:42:46;;;;;;;12.40;2.65;;;;;;;;;;5068441;28;20055;-82
2021/04/22 09:45:16;;;;;;;11.32;2.13;;;;;;;;;;5048397;28;20072;-82
2021/04/22 09:47:43;;;;;;;11.27;2.55;;;;;;;;;;5066212;28;20076;-83
2021/04/22 09:50:14;;;;;;;36.47;4.38;;;;;;;;;;5060683;28;20055;-84
2021/04/22 09:52:42;;;;;;;12.88;3.67;;;;;;;;;;5050840;28;20463;-84
2021/04/22 09:55:13;;;;;;;11.73;2.65;;;;;;;;;;5062187;28;20127;-85
2021/04/22 09:57:40;;;;;;;8.98;2.50;;;;;;;;;;5066629;28;20049;-85
2021/04/22 10:00:09;;;;;;;13.90;3.08;;;;;;;;;;5062567;28;20114;-83
2021/04/22 10:02:53;;;;;;;10.80;3.22;;;;;;;;;;5052514;28;20048;-81
2021/04/22 10:05:25;;;;;;;12.80;2.80;;;;;;;;;;5052877;28;20101;-81
2021/04/22 10:08:03;;;;;;;14.23;2.70;;;;;;;;;;5070368;28;20078;-84
2021/04/22 10:10:29;;;;;;;10.85;2.40;;;;;;;;;;5051403;28;20455;-85
2021/04/22 10:13:11;;;;;;;8.80;2.58;;;;;;;;;;5070231;28;20083;-83
2021/04/22 10:15:48;;;;;;;18.13;3.75;;;;;;;;;;5070501;28;20048;-84
2021/04/22 10:18:15;;;;;;;14.50;2.25;;;;;;;;;;5065719;28;20575;-81
2021/04/22 10:20:42;;;;;;;11.05;2.45;;;;;;;;;;5060576;28;20103;-83
2021/04/22 10:23:11;;;;;;;10.95;2.88;;;;;;;;;;5052782;28;20862;-79
2021/04/22 10:25:40;;;;;;;7.07;2.20;;;;;;;;;;5060006;28;20740;-83
2021/04/22 10:28:08;;;;;;;47.95;2.92;;;;;;;;;;5064948;28;20459;-82
2021/04/22 10:30:36;;;;;;;12.95;2.47;;;;;;;;;;5071202;28;20040;-82
2021/04/22 10:33:04;;;;;;;11.00;2.03;;;;;;;;;;5072569;28;20041;-79
2021/04/22 10:35:32;;;;;;;12.40;2.08;;;;;;;;;;5071341;28;20151;-81
2021/04/22 10:38:01;;;;;;;16.10;2.28;;;;;;;;;;5061877;28;20135;-82
2021/04/22 10:40:29;;;;;;;12.82;2.50;;;;;;;;;;5062874;28;20129;-81
2021/04/22 10:42:57;;;;;;;13.15;2.58;;;;;;;;;;5072163;28;20084;-83
2021/04/22 10:45:26;;;;;;;10.80;1.88;;;;;;;;;;5073686;28;20389;-82
2021/04/22 10:47:53;;;;;;;10.48;1.98;;;;;;;;;;5073114;28;20052;-80
2021/04/22 10:50:31;;;;;;;12.85;2.20;;;;;;;;;;5066985;28;20123;-81
2021/04/22 10:53:02;;;;;;;9.88;2.53;;;;;;;;;;5061721;28;20631;-81
2021/04/22 10:55:31;;;;;;;7.43;1.98;;;;;;;;;;5061821;28;20044;-80
2021/04/22 10:57:59;;;;;;;13.70;2.35;;;;;;;;;;5063377;28;20044;-80
2021/04/22 11:00:28;;;;;;;8.68;2.13;;;;;;;;;;5066035;28;20083;-79
2021/04/22 11:02:57;;;;;;;9.18;2.28;;;;;;;;;;5061056;28;20087;-79
2021/04/22 11:05:27;;;;;;;8.48;2.30;;;;;;;;;;5062745;28;20045;-79
2021/04/22 11:07:55;;;;;;;7.00;2.35;;;;;;;;;;5060568;28;20048;-82
2021/04/22 11:10:22;;;;;;;10.63;2.50;;;;;;;;;;5055503;28;20143;-79
2021/04/22 11:12:49;;;;;;;17.15;2.85;;;;;;;;;;5059259;28;20393;-78
2021/04/22 11:15:19;;;;;;;12.80;2.50;;;;;;;;;;5061229;28;20053;-80
2021/04/22 11:17:46;;;;;;;8.30;2.63;;;;;;;;;;5041573;28;20076;-79
2021/04/22 11:20:18;;;;;;;10.80;2.28;;;;;;;;;;5037007;28;20147;-80
2021/04/22 11:22:46;;;;;;;9.07;2.10;;;;;;;;;;5050371;28;20044;-80
2021/04/22 11:25:21;;;;;;;13.27;2.88;;;;;;;;;;5058494;28;20048;-82
2021/04/22 11:27:50;;;;;;;12.30;2.35;;;;;;;;;;5071091;28;20049;-81
2021/04/22 11:30:26;;;;;;;26.38;3.45;;;;;;;;;;5053353;28;20091;-81
2021/04/22 11:33:00;;;;;;;14.07;2.92;;;;;;;;;;5072169;28;20661;-82
2021/04/22 11:35:31;;;;;;;17.17;3.08;;;;;;;;;;5071515;28;20776;-82
2021/04/22 11:38:00;;;;;;;14.07;2.88;;;;;;;;;;5059413;28;20715;-79
2021/04/22 11:40:35;;;;;;;11.23;2.83;;;;;;;;;;5051103;28;20513;-80
2021/04/22 11:43:05;;;;;;;17.58;3.53;;;;;;;;;;5061600;28;20604;-82
2021/04/22 11:45:33;;;;;;;14.27;2.78;;;;;;;;;;5050048;28;20088;-77
2021/04/22 11:48:06;;;;;;;8.40;2.67;;;;;;;;;;5064447;28;20564;-77
2021/04/22 11:50:41;;;;;;;12.13;2.92;;;;;;;;;;5080235;22;20506;-81
2021/04/22 11:53:09;;;;;;;14.32;2.25;;;;;;;;;;5075362;28;20070;-83
2021/04/22 11:55:37;;;;;;;18.92;3.03;;;;;;;;;;5077016;28;20711;-83
2021/04/22 11:58:06;;;;;;;12.18;2.75;;;;;;;;;;5059654;28;20107;-83
2021/04/22 12:00:39;;;;;;;14.32;3.28;;;;;;;;;;5070321;28;20052;-79
2021/04/22 12:03:10;;;;;;;12.45;2.80;;;;;;;;;;5064265;28;20484;-82
2021/04/22 12:05:38;;;;;;;14.15;2.97;;;;;;;;;;5085984;28;20093;-82
2021/04/22 12:08:10;;;;;;;8.90;2.55;;;;;;;;;;5075437;28;20705;-83
2021/04/22 12:10:40;;;;;;;9.10;2.78;;;;;;;;;;5065243;28;20463;-82
2021/04/22 12:13:18;;;;;;;9.77;2.75;;;;;;;;;;5083421;28;20086;-80
2021/04/22 12:15:46;;;;;;;13.45;2.90;;;;;;;;;;5058584;28;20082;-81
2021/04/22 12:18:22;;;;;;;9.00;2.25;;;;;;;;;;5062237;28;20254;-85
2021/04/22 12:20:51;;;;;;;14.02;3.45;;;;;;;;;;5075858;28;20049;-84
2021/04/22 12:23:31;;;;;;;9.23;2.60;;;;;;;;;;5082305;28;20044;-82
2021/04/22 12:26:19;;;;;;;9.05;2.25;;;;;;;;;;5078783;28;20132;-82
2021/04/22 12:29:00;;;;;;;17.80;2.45;;;;;;;;;;5062721;28;20071;-84
2021/04/22 12:31:27;;;;;;;8.98;2.08;;;;;;;;;;5093263;28;20091;-79
2021/04/22 12:33:54;;;;;;;15.07;2.67;;;;;;;;;;5074084;28;20134;-81
2021/04/22 12:36:21;;;;;;;9.75;3.78;;;;;;;;;;5072169;28;20066;-80
2021/04/22 12:38:50;;;;;;;10.82;2.33;;;;;;;;;;5073094;28;20135;-80
2021/04/22 12:41:20;;;;;;;11.65;2.33;;;;;;;;;;5053364;28;20622;-80
2021/04/22 12:43:49;;;;;;;25.40;3.28;;;;;;;;;;5068749;28;20060;-80
2021/04/22 12:46:17;;;;;;;10.40;2.30;;;;;;;;;;5056000;28;20045;-84
2021/04/22 12:48:56;;;;;;;6.93;1.98;;;;;;;;;;5079793;28;20139;-82
2021/04/22 12:51:31;;;;;;;13.43;2.55;;;;;;;;;;5069919;28;20044;-77
2021/04/22 12:53:58;;;;;;;17.05;2.42;;;;;;;;;;5053974;28;20143;-80
2021/04/22 12:56:24;;;;;;;11.77;2.42;;;;;;;;;;5074142;28;20123;-77
2021/04/22 13:02:24;;;;;;;87.03;8.43;;;;;;;;;;5093165;22;20043;-80
2021/04/22 13:05:00;;;;;;;19.65;3.20;;;;;;;;;;5091476;28;20056;-81
2021/04/22 13:07:28;;;;;;;17.45;3.30;;;;;;;;;;5062420;28;20079;-81
2021/04/22 13:10:03;;;;;;;12.93;4.10;;;;;;;;;;5071896;28;20121;-81
2021/04/22 13:12:29;;;;;;;12.30;3.70;;;;;;;;;;5070091;28;20496;-80
2021/04/22 13:14:56;;;;;;;29.17;3.85;;;;;;;;;;5089578;28;20797;-76
2021/04/22 13:17:26;;;;;;;9.20;3.85;;;;;;;;;;5089667;28;20150;-82
2021/04/22 13:19:53;;;;;;;12.63;3.25;;;;;;;;;;5075662;28;20052;-78
2021/04/22 13:22:20;;;;;;;11.07;3.00;;;;;;;;;;5084682;28;20040;-89
2021/04/22 13:24:47;;;;;;;16.23;3.42;;;;;;;;;;5075404;28;20040;-89
2021/04/22 13:27:17;;;;;;;28.73;4.03;;;;;;;;;;5078135;28;20075;-86
2021/04/22 13:29:46;;;;;;;13.25;3.22;;;;;;;;;;5073963;28;20055;-91
2021/04/22 13:32:20;;;;;;;18.17;3.63;;;;;;;;;;5091440;28;20843;-86
2021/04/22 13:37:46;;;;;;;30.35;9.70;;;;;;;;;;5001171;28;20145;-84
2021/04/22 13:40:14;;;;;;;16.58;4.85;;;;;;;;;;5006932;28;20116;-85
2021/04/22 13:42:44;;;;;;;20.25;3.50;;;;;;;;;;5007290;28;20045;-87
2021/04/22 13:45:15;;;;;;;22.83;5.80;;;;;;;;;;5010678;28;20601;-86
2021/04/22 13:47:43;;;;;;;12.68;3.30;;;;;;;;;;5010094;28;20058;-81
2021/04/22 13:50:10;;;;;;;16.77;3.40;;;;;;;;;;5010401;28;20046;-83
2021/04/22 13:52:41;;;;;;;18.80;3.92;;;;;;;;;;5009351;28;20058;-83
2021/04/22 13:55:08;;;;;;;9.63;3.45;;;;;;;;;;5006412;28;20496;-84
2021/04/22 13:57:44;;;;;;;11.18;3.20;;;;;;;;;;4993634;28;20108;-82
2021/04/22 14:00:12;;;;;;;7.78;3.05;;;;;;;;;;4994242;28;20088;-88
2021/04/22 14:02:47;;;;;;;14.75;3.65;;;;;;;;;;4996072;28;20049;-81
2021/04/22 14:05:16;;;;;;;19.65;3.83;;;;;;;;;;5010702;28;20045;-83
2021/04/22 14:07:53;;;;;;;12.27;2.95;;;;;;;;;;5004103;28;20054;-82
2021/04/22 14:10:28;;;;;;;16.08;3.65;;;;;;;;;;5030620;28;20050;-83
2021/04/22 14:12:55;;;;;;;10.38;3.60;;;;;;;;;;4987400;28;20050;-82
2021/04/22 14:15:21;;;;;;;12.70;3.75;;;;;;;;;;4994069;28;20077;-83
2021/04/22 14:17:48;;;;;;;20.90;3.88;;;;;;;;;;4993961;28;20495;-81
2021/04/22 14:20:15;;;;;;;9.82;3.47;;;;;;;;;;4996297;28;20057;-81
2021/04/22 14:22:42;;;;;;;10.77;3.83;;;;;;;;;;5004440;28;20095;-81
2021/04/22 14:25:09;;;;;;;16.10;3.80;;;;;;;;;;5029280;28;20117;-82
2021/04/22 14:27:37;;;;;;;13.43;3.80;;;;;;;;;;5014340;28;20046;-81
2021/04/22 14:30:05;;;;;;;16.25;3.72;;;;;;;;;;5014514;28;20046;-80
2021/04/22 14:32:32;;;;;;;27.75;3.90;;;;;;;;;;5014346;28;20104;-80
2021/04/22 14:34:59;;;;;;;11.43;3.80;;;;;;;;;;5011996;28;20049;-84
2021/04/22 14:37:27;;;;;;;15.15;3.70;;;;;;;;;;5005905;28;20081;-80
2021/04/22 14:39:56;;;;;;;13.80;4.10;;;;;;;;;;5014405;28;20088;-79
2021/04/22 14:42:24;;;;;;;17.85;3.20;;;;;;;;;;5013814;28;20120;-79
2021/04/22 14:44:58;;;;;;;12.27;3.83;;;;;;;;;;5026085;28;20060;-83
2021/04/22 14:47:28;;;;;;;13.80;3.67;;;;;;;;;;5020359;28;20079;-82
2021/04/22 14:49:55;;;;;;;12.48;3.30;;;;;;;;;;4997315;28;20112;-84